Time;durP1;ratioP1;P1;durP2;ratioP2;P2;SDS_P1;SDS_P2;PMS_P1;PMS_P2;Temp;Humidity;BMP_temperature;BMP_pressure;BME280_temperature;BME280_humidity;BME280_pressure;Samples;Min_cycle;Max_cycle;Signal;HPM_P1;HPM_P2
2021/05/29 00:00:55;;;;;;;9.00;8.10;;;14.00;98.20;;;;;;5017773;28;20425;-85
2021/05/29 00:03:22;;;;;;;9.33;8.63;;;13.90;98.30;;;;;;5016611;28;20416;-86
2021/05/29 00:05:48;;;;;;;10.57;9.47;;;13.90;98.50;;;;;;5016982;28;20917;-86
2021/05/29 00:08:14;;;;;;;9.97;9.10;;;13.80;98.30;;;;;;5034900;28;20417;-86
2021/05/29 00:10:43;;;;;;;9.67;8.77;;;13.80;98.60;;;;;;5034574;28;20445;-86
2021/05/29 00:13:11;;;;;;;9.13;8.43;;;13.80;98.90;;;;;;5034822;28;20181;-85
2021/05/29 00:15:38;;;;;;;10.17;9.37;;;13.80;98.90;;;;;;5034030;28;20483;-85
2021/05/29 00:18:05;;;;;;;10.47;9.67;;;13.70;98.90;;;;;;5034761;28;20518;-85
2021/05/29 00:20:31;;;;;;;9.93;8.97;;;13.70;98.90;;;;;;5016478;28;20429;-85
2021/05/29 00:22:57;;;;;;;8.83;7.90;;;13.70;98.90;;;;;;5034641;28;20409;-85
2021/05/29 00:25:23;;;;;;;10.43;8.20;;;13.70;99.10;;;;;;5015974;28;20516;-86
2021/05/29 00:27:49;;;;;;;8.60;7.83;;;13.70;99.10;;;;;;5034789;28;20211;-86
2021/05/29 00:30:15;;;;;;;8.63;7.93;;;13.70;98.90;;;;;;5016741;28;20827;-86
2021/05/29 00:32:41;;;;;;;7.90;7.37;;;13.70;99.10;;;;;;5016192;28;20179;-86
2021/05/29 00:35:08;;;;;;;9.00;8.30;;;13.70;99.10;;;;;;5034271;28;20819;-85
2021/05/29 00:37:34;;;;;;;9.23;8.47;;;13.70;99.10;;;;;;5015902;28;20416;-86
2021/05/29 00:40:00;;;;;;;7.97;7.37;;;13.70;99.00;;;;;;5033986;28;20905;-85
2021/05/29 00:42:26;;;;;;;7.70;7.20;;;13.80;99.00;;;;;;5016083;28;20416;-85
2021/05/29 00:44:55;;;;;;;7.83;7.27;;;13.70;98.80;;;;;;5034337;28;20190;-85
2021/05/29 00:47:26;;;;;;;8.07;7.40;;;13.70;98.90;;;;;;5016554;28;20428;-85
2021/05/29 00:49:52;;;;;;;7.53;7.00;;;13.60;98.90;;;;;;5034032;28;20405;-85
2021/05/29 00:52:20;;;;;;;7.53;6.83;;;13.60;98.80;;;;;;5016428;28;20413;-85
2021/05/29 00:54:46;;;;;;;7.70;7.13;;;13.60;98.80;;;;;;5033370;28;20453;-85
2021/05/29 00:57:13;;;;;;;7.43;6.83;;;13.50;98.60;;;;;;5016249;28;20529;-85
2021/05/29 00:59:39;;;;;;;8.10;7.40;;;13.50;98.50;;;;;;5033335;28;20428;-85
2021/05/29 01:02:08;;;;;;;8.17;7.47;;;13.40;98.50;;;;;;5016216;28;20413;-85
2021/05/29 01:04:34;;;;;;;8.80;8.10;;;13.40;98.70;;;;;;5015681;28;20421;-84
2021/05/29 01:07:02;;;;;;;8.20;7.50;;;13.30;98.80;;;;;;5033751;28;20408;-84
2021/05/29 01:09:28;;;;;;;10.03;9.13;;;13.30;99.10;;;;;;5033268;28;20405;-84
2021/05/29 01:11:54;;;;;;;8.73;8.13;;;13.20;99.10;;;;;;5016175;28;20420;-85
2021/05/29 01:14:20;;;;;;;9.50;8.53;;;13.20;99.10;;;;;;5015998;28;20217;-85
2021/05/29 01:16:57;;;;;;;9.33;8.53;;;13.20;99.30;;;;;;5014931;28;20968;-85
2021/05/29 01:19:23;;;;;;;9.67;8.87;;;13.20;99.40;;;;;;5016084;28;20570;-85
2021/05/29 01:21:49;;;;;;;9.73;8.83;;;13.20;99.20;;;;;;5033433;28;20415;-85
2021/05/29 01:24:17;;;;;;;8.87;7.97;;;13.20;99.30;;;;;;5033368;28;20500;-85
2021/05/29 01:26:44;;;;;;;9.40;8.50;;;13.10;99.40;;;;;;5015090;28;20193;-85
2021/05/29 01:29:10;;;;;;;7.90;7.30;;;13.10;99.20;;;;;;5015641;28;20824;-85
2021/05/29 01:31:36;;;;;;;8.90;8.20;;;13.00;99.00;;;;;;5032791;28;20416;-85
2021/05/29 01:34:02;;;;;;;9.20;8.50;;;13.00;99.00;;;;;;5033122;28;20449;-86
2021/05/29 01:36:29;;;;;;;8.17;7.57;;;13.00;99.20;;;;;;5032061;28;20419;-86
2021/05/29 01:38:56;;;;;;;10.13;8.73;;;13.00;99.40;;;;;;4999063;28;20489;-86
2021/05/29 01:41:24;;;;;;;9.67;8.80;;;12.90;99.60;;;;;;5033184;28;20415;-85
2021/05/29 01:43:51;;;;;;;9.23;8.53;;;12.90;99.30;;;;;;5015538;28;20405;-85
2021/05/29 01:46:21;;;;;;;9.20;8.60;;;12.80;99.10;;;;;;5033114;28;20819;-85
2021/05/29 01:48:49;;;;;;;10.13;9.33;;;12.80;99.20;;;;;;5032713;28;20845;-85
2021/05/29 01:51:17;;;;;;;9.23;8.33;;;12.80;99.40;;;;;;5033106;28;20462;-86
2021/05/29 01:53:44;;;;;;;9.87;8.93;;;12.70;99.50;;;;;;5032431;28;20409;-86
2021/05/29 01:56:10;;;;;;;9.43;8.73;;;12.70;99.30;;;;;;5015523;28;20514;-85
2021/05/29 01:58:37;;;;;;;9.50;8.63;;;12.70;99.40;;;;;;5014476;28;20529;-86
2021/05/29 02:01:08;;;;;;;10.03;9.23;;;12.60;99.30;;;;;;5032971;28;20818;-85
2021/05/29 02:03:36;;;;;;;9.93;9.13;;;12.60;99.40;;;;;;5032225;28;20499;-86
2021/05/29 02:06:03;;;;;;;9.87;9.00;;;12.60;99.40;;;;;;5032772;28;20416;-85
2021/05/29 02:08:29;;;;;;;9.27;8.67;;;12.60;99.40;;;;;;5014581;28;20415;-85
2021/05/29 02:10:54;;;;;;;8.80;8.00;;;12.60;99.40;;;;;;5032714;28;20481;-86
2021/05/29 02:13:38;;;;;;;9.87;9.03;;;12.50;99.20;;;;;;5032972;28;20189;-85
2021/05/29 02:16:05;;;;;;;8.90;8.10;;;12.50;99.30;;;;;;5032276;28;20232;-85
2021/05/29 02:18:32;;;;;;;9.37;8.57;;;12.50;99.30;;;;;;5014322;28;20482;-86
2021/05/29 02:21:03;;;;;;;8.70;8.10;;;12.40;99.70;;;;;;5014985;28;20472;-85
2021/05/29 02:23:41;;;;;;;8.60;7.93;;;12.40;99.80;;;;;;5014329;28;20424;-86
2021/05/29 02:26:12;;;;;;;9.17;8.40;;;12.40;99.90;;;;;;5032889;28;20509;-85
2021/05/29 02:28:40;;;;;;;7.80;7.20;;;12.40;99.90;;;;;;5032013;28;20419;-86
2021/05/29 02:31:08;;;;;;;8.30;7.67;;;12.40;99.80;;;;;;5032458;28;20903;-85
2021/05/29 02:33:35;;;;;;;8.40;7.70;;;12.30;99.50;;;;;;5014296;28;20503;-86
2021/05/29 02:36:02;;;;;;;8.70;8.00;;;12.30;99.60;;;;;;5014828;28;20464;-86
2021/05/29 02:38:29;;;;;;;8.30;7.60;;;12.30;99.40;;;;;;5014473;28;20466;-89
2021/05/29 02:40:55;;;;;;;8.93;8.20;;;12.30;99.50;;;;;;5014746;28;20769;-86
2021/05/29 02:43:21;;;;;;;8.57;7.77;;;12.30;99.80;;;;;;5032392;28;20414;-86
2021/05/29 02:45:47;;;;;;;8.40;7.70;;;12.20;99.80;;;;;;5031788;28;20443;-86
2021/05/29 02:48:14;;;;;;;8.60;7.90;;;12.30;99.90;;;;;;5032911;28;20503;-85
2021/05/29 02:50:41;;;;;;;7.90;7.20;;;12.30;99.90;;;;;;5035851;28;20175;-86
2021/05/29 02:53:09;;;;;;;8.17;7.50;;;12.20;99.70;;;;;;5018479;28;20506;-85
2021/05/29 02:55:36;;;;;;;7.87;7.17;;;12.20;99.80;;;;;;5035266;28;20477;-85
2021/05/29 02:58:02;;;;;;;8.00;7.30;;;12.20;99.90;;;;;;5018432;28;20483;-85
2021/05/29 03:00:42;;;;;;;7.90;7.17;;;12.10;99.70;;;;;;5018514;28;20417;-85
2021/05/29 03:03:08;;;;;;;7.93;7.37;;;12.10;99.90;;;;;;5036212;28;20485;-84
2021/05/29 03:05:35;;;;;;;8.47;7.87;;;12.10;99.80;;;;;;5035522;28;20837;-86
2021/05/29 03:08:11;;;;;;;7.67;7.07;;;12.10;99.60;;;;;;5018747;28;20181;-91
2021/05/29 03:10:37;;;;;;;8.27;7.57;;;12.00;99.70;;;;;;5018046;28;20409;-86
2021/05/29 03:13:06;;;;;;;7.87;7.27;;;12.00;99.80;;;;;;5017991;28;20423;-84
2021/05/29 03:15:32;;;;;;;7.80;6.70;;;12.00;99.70;;;;;;5017461;28;20566;-85
2021/05/29 03:17:59;;;;;;;7.40;6.87;;;12.00;99.70;;;;;;5018417;28;20924;-85
2021/05/29 03:20:27;;;;;;;6.97;6.47;;;11.90;99.70;;;;;;5018148;28;20820;-85
2021/05/29 03:22:53;;;;;;;7.90;7.23;;;11.90;99.50;;;;;;5017592;28;20507;-85
2021/05/29 03:25:20;;;;;;;7.57;6.97;;;11.90;99.40;;;;;;5018130;28;20455;-85
2021/05/29 03:27:47;;;;;;;7.83;7.23;;;11.80;99.40;;;;;;5035210;28;20758;-84
2021/05/29 03:30:16;;;;;;;7.90;7.40;;;11.80;99.60;;;;;;5035781;28;20419;-85
2021/05/29 03:32:42;;;;;;;8.03;7.30;;;11.80;99.70;;;;;;5035140;28;20423;-85
2021/05/29 03:35:09;;;;;;;7.87;7.17;;;11.80;99.80;;;;;;5017818;28;20961;-84
2021/05/29 03:37:35;;;;;;;8.20;7.30;;;11.80;99.90;;;;;;5017498;28;20220;-86
2021/05/29 03:40:01;;;;;;;7.20;6.50;;;11.80;99.90;;;;;;5017664;28;20444;-86
2021/05/29 03:42:27;;;;;;;8.10;7.27;;;11.80;99.80;;;;;;5035641;28;20418;-86
2021/05/29 03:44:53;;;;;;;8.30;7.50;;;11.80;99.60;;;;;;5034978;28;20192;-86
2021/05/29 03:47:18;;;;;;;8.20;7.60;;;11.80;99.50;;;;;;5017430;28;20435;-86
2021/05/29 03:49:44;;;;;;;8.27;7.57;;;11.70;99.70;;;;;;5034947;28;20184;-86
2021/05/29 03:52:10;;;;;;;7.10;6.53;;;11.70;99.90;;;;;;5017730;28;20177;-86
2021/05/29 03:54:36;;;;;;;7.20;6.70;;;11.80;99.90;;;;;;5034736;28;20208;-86
2021/05/29 03:57:02;;;;;;;7.27;6.77;;;11.80;99.90;;;;;;5035494;28;20426;-86
2021/05/29 03:59:28;;;;;;;7.90;7.20;;;11.80;99.90;;;;;;5017191;28;20239;-86
2021/05/29 04:01:54;;;;;;;7.53;6.93;;;11.70;99.90;;;;;;5034723;28;20494;-86
2021/05/29 04:04:20;;;;;;;7.10;6.60;;;11.80;99.90;;;;;;5017247;28;20330;-86
2021/05/29 04:06:46;;;;;;;8.17;7.50;;;11.80;99.90;;;;;;5034293;28;20180;-86
2021/05/29 04:09:12;;;;;;;7.37;6.67;;;11.70;99.90;;;;;;5035103;28;20260;-86
2021/05/29 04:11:38;;;;;;;8.63;7.53;;;11.70;99.90;;;;;;5034647;28;20413;-86
2021/05/29 04:14:06;;;;;;;7.80;7.20;;;11.80;99.90;;;;;;5034916;28;20462;-86
2021/05/29 04:16:32;;;;;;;7.50;7.00;;;11.80;99.90;;;;;;5017167;28;20579;-86
2021/05/29 04:18:58;;;;;;;8.00;7.30;;;11.80;99.90;;;;;;5016773;28;20507;-86
2021/05/29 04:21:25;;;;;;;8.40;7.80;;;11.70;99.90;;;;;;5017157;28;20183;-86
2021/05/29 04:23:50;;;;;;;8.20;7.60;;;11.70;99.90;;;;;;5016673;28;20442;-86
2021/05/29 04:26:17;;;;;;;7.90;7.40;;;11.80;99.90;;;;;;5034393;28;20465;-86
2021/05/29 04:28:43;;;;;;;8.33;7.73;;;11.80;99.90;;;;;;5034357;28;20191;-86
2021/05/29 04:31:08;;;;;;;8.43;7.90;;;11.80;99.90;;;;;;5034686;28;20424;-86
2021/05/29 04:33:34;;;;;;;8.37;7.77;;;11.80;99.90;;;;;;5034661;28;20185;-86
2021/05/29 04:36:00;;;;;;;9.33;8.63;;;11.90;99.90;;;;;;5034552;28;20213;-86
2021/05/29 04:38:27;;;;;;;9.77;9.00;;;11.90;99.90;;;;;;5016917;28;20415;-88
2021/05/29 04:40:53;;;;;;;8.50;7.80;;;11.90;99.90;;;;;;5033937;28;20439;-87
2021/05/29 04:43:20;;;;;;;8.10;7.40;;;11.90;99.90;;;;;;5016537;28;20446;-86
2021/05/29 04:45:47;;;;;;;8.83;8.17;;;11.90;99.90;;;;;;5016256;28;20517;-86
2021/05/29 04:48:13;;;;;;;8.43;7.73;;;11.90;99.90;;;;;;5017042;28;20426;-86
2021/05/29 04:53:24;;;;;;;8.50;7.90;;;11.90;99.90;;;;;;5034388;28;20251;-87
2021/05/29 04:55:51;;;;;;;9.47;8.00;;;12.00;99.90;;;;;;5033572;28;20490;-87
2021/05/29 04:58:17;;;;;;;7.80;7.30;;;12.00;99.90;;;;;;5034178;28;20421;-86
2021/05/29 05:00:42;;;;;;;9.70;8.80;;;12.10;99.90;;;;;;5016074;28;20420;-87
2021/05/29 05:03:08;;;;;;;10.87;9.87;;;12.10;99.90;;;;;;4999985;28;20186;-86
2021/05/29 05:05:34;;;;;;;8.50;7.70;;;12.10;99.90;;;;;;5016376;28;20188;-86
2021/05/29 05:08:00;;;;;;;8.10;7.33;;;12.10;99.90;;;;;;5033092;28;20263;-86
2021/05/29 05:10:25;;;;;;;7.80;7.10;;;12.10;99.90;;;;;;5015968;28;20181;-86
2021/05/29 05:12:51;;;;;;;8.30;7.70;;;12.10;99.90;;;;;;4998844;28;20673;-87
2021/05/29 05:15:17;;;;;;;8.77;7.90;;;12.20;99.90;;;;;;5033286;28;20529;-86
2021/05/29 05:17:43;;;;;;;8.13;7.53;;;12.20;99.90;;;;;;5033704;28;20185;-87
2021/05/29 05:20:09;;;;;;;9.37;8.57;;;12.20;99.90;;;;;;5033735;28;20178;-86
2021/05/29 05:22:36;;;;;;;9.60;8.70;;;12.30;99.90;;;;;;5033840;28;20409;-86
2021/05/29 05:25:04;;;;;;;9.77;8.87;;;12.30;99.90;;;;;;5015413;28;20492;-87
2021/05/29 05:27:30;;;;;;;11.00;10.10;;;12.30;99.90;;;;;;5033347;28;20773;-86
2021/05/29 05:29:56;;;;;;;9.73;8.93;;;12.40;99.90;;;;;;5032898;28;20414;-86
2021/05/29 05:32:21;;;;;;;9.70;9.00;;;12.40;99.90;;;;;;5033466;28;20420;-86
2021/05/29 05:34:47;;;;;;;11.50;10.10;;;12.40;99.90;;;;;;5032898;28;20205;-86
2021/05/29 05:37:13;;;;;;;10.50;9.60;;;12.40;99.90;;;;;;5033513;28;20636;-86
2021/05/29 05:39:39;;;;;;;10.50;9.57;;;12.50;99.90;;;;;;5032824;28;20534;-91
2021/05/29 05:42:05;;;;;;;10.97;9.87;;;12.60;99.90;;;;;;5033142;28;20175;-87
2021/05/29 05:44:31;;;;;;;11.53;10.43;;;12.60;99.90;;;;;;5015758;28;20181;-87
2021/05/29 05:46:56;;;;;;;11.97;10.80;;;12.70;99.90;;;;;;5032734;28;20423;-87
2021/05/29 05:49:22;;;;;;;11.07;9.97;;;12.80;99.90;;;;;;5033377;28;20181;-87
2021/05/29 05:51:48;;;;;;;12.67;11.37;;;12.80;99.90;;;;;;5032673;28;20200;-86
2021/05/29 05:54:13;;;;;;;11.50;10.50;;;12.90;99.90;;;;;;5015354;28;20212;-86
2021/05/29 05:56:39;;;;;;;13.57;12.23;;;12.90;99.90;;;;;;5032929;28;20176;-86
2021/05/29 05:59:05;;;;;;;13.23;11.63;;;13.00;99.90;;;;;;5033039;28;20627;-86
2021/05/29 06:01:31;;;;;;;13.10;11.83;;;13.00;99.90;;;;;;5033024;28;20428;-86
2021/05/29 06:03:57;;;;;;;12.97;11.67;;;13.10;99.90;;;;;;5032501;28;20197;-87
2021/05/29 06:06:24;;;;;;;13.37;12.17;;;13.20;99.90;;;;;;5033052;28;20170;-87
2021/05/29 06:08:50;;;;;;;12.93;11.80;;;13.20;99.90;;;;;;5032157;28;20913;-86
2021/05/29 06:11:15;;;;;;;13.50;12.27;;;13.30;99.90;;;;;;5015364;28;20822;-87
2021/05/29 06:21:24;;;;;;;14.53;13.27;;;13.50;99.90;;;;;;5032852;28;20401;-86
2021/05/29 06:23:49;;;;;;;14.70;13.30;;;13.60;99.90;;;;;;5014355;28;20417;-86
2021/05/29 06:26:15;;;;;;;14.00;12.70;;;13.70;99.90;;;;;;5015084;28;20527;-87
2021/05/29 06:28:41;;;;;;;13.33;12.03;;;13.70;99.90;;;;;;5015151;28;20210;-86
2021/05/29 06:31:07;;;;;;;14.90;13.53;;;13.80;99.90;;;;;;4998764;28;20525;-86
2021/05/29 06:33:33;;;;;;;13.47;12.33;;;13.80;99.90;;;;;;5033021;28;20863;-86
2021/05/29 06:35:59;;;;;;;15.43;13.83;;;13.90;99.90;;;;;;5031929;28;20498;-86
2021/05/29 06:38:24;;;;;;;14.07;12.87;;;14.00;99.90;;;;;;5014943;28;20194;-86
2021/05/29 06:40:51;;;;;;;14.60;13.10;;;14.10;99.90;;;;;;5032056;28;20181;-87
2021/05/29 06:43:17;;;;;;;15.23;13.40;;;14.30;99.90;;;;;;5032437;28;20407;-86
2021/05/29 06:46:03;;;;;;;14.33;13.03;;;14.40;99.90;;;;;;5032459;28;20407;-90
2021/05/29 06:48:28;;;;;;;15.00;12.27;;;14.50;99.90;;;;;;5031967;28;20515;-86
2021/05/29 06:50:56;;;;;;;11.60;10.63;;;14.60;99.90;;;;;;5014355;28;20853;-87
2021/05/29 06:53:36;;;;;;;12.77;11.67;;;14.70;99.90;;;;;;5014789;28;20181;-86
2021/05/29 06:58:52;;;;;;;13.00;11.80;;;14.80;99.90;;;;;;5031940;28;20482;-86
2021/05/29 07:01:22;;;;;;;12.70;11.50;;;14.90;99.90;;;;;;5014402;28;20415;-86
2021/05/29 07:03:48;;;;;;;13.07;11.97;;;15.00;99.90;;;;;;5013861;28;20909;-86
2021/05/29 07:06:15;;;;;;;14.27;11.67;;;15.10;99.90;;;;;;5032197;28;20452;-86
2021/05/29 07:08:41;;;;;;;12.77;11.67;;;15.20;99.90;;;;;;5032055;28;20422;-87
2021/05/29 07:11:07;;;;;;;12.33;11.33;;;15.20;99.60;;;;;;5014283;28;20435;-87
2021/05/29 07:13:33;;;;;;;13.40;11.30;;;15.10;99.30;;;;;;5014283;28;20417;-86
2021/05/29 07:15:59;;;;;;;13.07;11.67;;;14.90;99.40;;;;;;5031008;28;20488;-87
2021/05/29 07:18:32;;;;;;;13.17;12.07;;;15.00;99.90;;;;;;5032290;28;20515;-86
2021/05/29 07:21:00;;;;;;;11.67;10.57;;;15.10;99.90;;;;;;5031669;28;20409;-87
2021/05/29 07:23:25;;;;;;;12.37;11.20;;;15.30;99.90;;;;;;5014687;28;20422;-87
2021/05/29 07:25:51;;;;;;;13.33;11.90;;;15.50;99.90;;;;;;5031753;28;20431;-87
2021/05/29 07:28:18;;;;;;;12.50;11.30;;;15.60;99.50;;;;;;5014241;28;20179;-86
2021/05/29 07:30:44;;;;;;;12.70;11.40;;;15.80;99.30;;;;;;5014524;28;20172;-86
2021/05/29 07:33:10;;;;;;;13.27;12.07;;;15.80;99.40;;;;;;5013587;28;20433;-87
2021/05/29 07:35:35;;;;;;;13.93;12.83;;;16.00;99.60;;;;;;5034477;28;20523;-87
2021/05/29 07:38:02;;;;;;;14.93;13.50;;;16.00;98.80;;;;;;5016986;28;20443;-87
2021/05/29 07:40:34;;;;;;;15.30;14.10;;;16.10;98.60;;;;;;5035333;28;20181;-86
2021/05/29 07:43:00;;;;;;;14.30;12.90;;;16.10;98.80;;;;;;5017795;28;20738;-87
2021/05/29 07:45:27;;;;;;;13.37;12.03;;;16.20;98.20;;;;;;5017739;28;20438;-87
2021/05/29 07:47:53;;;;;;;15.00;13.67;;;16.30;98.20;;;;;;5017303;28;20627;-86
2021/05/29 07:50:18;;;;;;;16.20;14.80;;;16.40;98.60;;;;;;5035424;28;20446;-86
2021/05/29 07:52:46;;;;;;;16.47;14.87;;;16.40;98.30;;;;;;5035384;28;20256;-86
2021/05/29 07:55:12;;;;;;;16.70;15.10;;;16.50;98.50;;;;;;5017479;28;20224;-86
2021/05/29 07:57:38;;;;;;;16.43;14.73;;;16.60;97.20;;;;;;5035264;28;20902;-86
2021/05/29 08:00:09;;;;;;;17.60;15.87;;;16.70;97.20;;;;;;5034663;28;20415;-86
2021/05/29 08:02:35;;;;;;;18.20;16.37;;;16.80;97.80;;;;;;5035247;28;20170;-86
2021/05/29 08:05:00;;;;;;;14.57;13.20;;;16.90;97.50;;;;;;5016981;28;20474;-87
2021/05/29 08:07:26;;;;;;;17.30;15.70;;;16.90;95.90;;;;;;5034959;28;20185;-87
2021/05/29 08:09:55;;;;;;;14.07;12.70;;;17.10;96.50;;;;;;5033832;28;20494;-90
2021/05/29 08:12:26;;;;;;;15.07;13.60;;;17.00;94.80;;;;;;5034800;28;20165;-87
2021/05/29 08:14:52;;;;;;;14.00;12.70;;;17.10;95.30;;;;;;5016577;28;20476;-87
2021/05/29 08:17:18;;;;;;;12.83;11.70;;;17.20;96.10;;;;;;5035010;28;20416;-87
2021/05/29 08:19:44;;;;;;;14.17;12.77;;;17.40;96.10;;;;;;5034967;28;20197;-86
2021/05/29 08:22:10;;;;;;;14.30;12.80;;;17.50;95.10;;;;;;5034303;28;20185;-86
2021/05/29 08:24:36;;;;;;;12.70;11.50;;;17.70;94.80;;;;;;5034668;28;20428;-87
2021/05/29 08:27:02;;;;;;;13.47;11.43;;;17.80;94.30;;;;;;5034101;28;20428;-87
2021/05/29 08:29:28;;;;;;;12.90;11.60;;;18.00;94.40;;;;;;5034953;28;20181;-86
2021/05/29 08:31:54;;;;;;;13.10;11.77;;;18.10;93.30;;;;;;5034066;28;20405;-87
2021/05/29 08:34:20;;;;;;;13.10;11.67;;;18.00;92.90;;;;;;5034656;28;20210;-87
2021/05/29 08:36:46;;;;;;;12.00;10.90;;;18.00;92.70;;;;;;5034290;28;20209;-86
2021/05/29 08:39:11;;;;;;;12.23;11.00;;;18.00;93.40;;;;;;5016068;28;20179;-87
2021/05/29 08:41:38;;;;;;;12.10;10.90;;;18.00;93.00;;;;;;5034486;28;20210;-86
2021/05/29 08:44:05;;;;;;;12.13;11.00;;;18.00;92.30;;;;;;5033853;28;20185;-87
2021/05/29 08:46:31;;;;;;;11.37;10.20;;;18.00;93.20;;;;;;5016715;28;20454;-87
2021/05/29 08:48:58;;;;;;;10.67;9.70;;;18.20;93.20;;;;;;5033717;28;20438;-87
2021/05/29 08:51:24;;;;;;;11.90;10.80;;;18.30;92.50;;;;;;5034467;28;20174;-87
2021/05/29 08:53:52;;;;;;;12.07;10.83;;;18.40;91.20;;;;;;5034075;28;20409;-92
2021/05/29 08:56:19;;;;;;;12.60;11.40;;;18.50;92.00;;;;;;5016693;28;20186;-86
2021/05/29 08:58:46;;;;;;;13.50;12.10;;;18.60;91.10;;;;;;5016520;28;20420;-86
2021/05/29 09:01:13;;;;;;;14.23;12.83;;;18.70;91.50;;;;;;5015733;28;20527;-87
2021/05/29 09:03:52;;;;;;;15.70;14.10;;;18.70;91.30;;;;;;5033734;28;20421;-87
2021/05/29 09:06:20;;;;;;;14.27;12.97;;;18.40;90.00;;;;;;5033913;28;20418;-86
2021/05/29 09:08:54;;;;;;;15.07;13.67;;;18.40;91.20;;;;;;5033578;28;20421;-86
2021/05/29 09:11:49;;;;;;;14.43;12.80;;;18.40;91.20;;;;;;5016212;28;20426;-86
2021/05/29 09:14:22;;;;;;;14.27;13.00;;;18.50;91.30;;;;;;4999207;28;20827;-86
2021/05/29 09:16:59;;;;;;;14.27;12.97;;;18.60;91.20;;;;;;5015676;28;20468;-86
2021/05/29 09:19:25;;;;;;;13.03;11.93;;;18.80;91.90;;;;;;5016176;28;20978;-86
2021/05/29 09:21:51;;;;;;;14.80;13.50;;;18.90;91.40;;;;;;5033680;28;20413;-86
2021/05/29 09:24:18;;;;;;;15.03;13.17;;;19.10;91.70;;;;;;5033644;28;20208;-87
2021/05/29 09:26:52;;;;;;;13.87;12.53;;;19.10;89.10;;;;;;5033480;28;20254;-86
2021/05/29 09:29:20;;;;;;;13.40;12.20;;;19.20;90.40;;;;;;5033140;28;20753;-87
2021/05/29 09:32:00;;;;;;;15.30;13.90;;;19.30;90.70;;;;;;5033442;28;20796;-86
2021/05/29 09:34:35;;;;;;;14.53;13.30;;;19.30;90.20;;;;;;5015949;28;20481;-86
2021/05/29 09:37:28;;;;;;;15.30;13.90;;;19.30;89.00;;;;;;5032673;28;20509;-86
2021/05/29 09:40:19;;;;;;;15.23;13.90;;;19.30;89.00;;;;;;5032577;28;20397;-86
2021/05/29 09:42:45;;;;;;;17.33;15.73;;;19.30;90.20;;;;;;4999012;28;20480;-86
2021/05/29 09:45:26;;;;;;;16.50;14.90;;;19.30;87.30;;;;;;5015141;28;20768;-86
2021/05/29 09:48:12;;;;;;;14.17;12.90;;;19.30;89.10;;;;;;5033222;28;20174;-82
2021/05/29 09:51:01;;;;;;;15.43;13.67;;;19.30;85.10;;;;;;5033048;28;20769;-82
2021/05/29 09:53:29;;;;;;;11.33;10.30;;;19.10;84.70;;;;;;5015832;28;20417;-82
2021/05/29 09:55:55;;;;;;;13.00;11.80;;;19.10;87.30;;;;;;5014523;28;20535;-83
2021/05/29 09:58:41;;;;;;;12.37;11.37;;;19.00;85.70;;;;;;5032415;28;20852;-82
2021/05/29 10:01:07;;;;;;;14.33;12.83;;;19.00;85.40;;;;;;5032167;28;20206;-82
2021/05/29 10:03:47;;;;;;;13.17;12.07;;;19.10;84.10;;;;;;5032945;28;20920;-82
2021/05/29 10:06:12;;;;;;;13.17;11.93;;;19.30;83.20;;;;;;5032392;28;20178;-83
2021/05/29 10:08:38;;;;;;;12.57;11.37;;;19.40;82.30;;;;;;5015347;28;20413;-92
2021/05/29 10:11:04;;;;;;;18.43;16.50;;;19.50;81.50;;;;;;5015938;28;20297;-94
2021/05/29 10:13:34;;;;;;;15.67;14.17;;;19.60;80.70;;;;;;5033586;28;20618;-93
2021/05/29 10:16:01;;;;;;;19.57;17.47;;;19.60;80.20;;;;;;5015283;28;20833;-94
2021/05/29 10:18:27;;;;;;;14.80;13.40;;;19.70;80.30;;;;;;5015858;28;20413;-93
2021/05/29 10:20:53;;;;;;;22.00;19.80;;;19.60;80.20;;;;;;5015512;28;20782;-93
2021/05/29 10:23:19;;;;;;;35.50;31.83;;;19.50;80.40;;;;;;5033873;28;20658;-93
2021/05/29 10:25:45;;;;;;;20.77;18.67;;;19.40;80.80;;;;;;5041004;28;20469;-93
2021/05/29 10:28:12;;;;;;;18.43;16.50;;;19.40;81.00;;;;;;5028394;28;20174;-92
2021/05/29 10:30:38;;;;;;;14.53;13.13;;;19.40;80.70;;;;;;5024680;28;20512;-94
2021/05/29 10:33:15;;;;;;;16.13;14.70;;;19.40;80.40;;;;;;5039536;28;20421;-95
2021/05/29 10:35:45;;;;;;;15.90;14.40;;;19.50;80.10;;;;;;5032637;28;20958;-92
2021/05/29 10:38:13;;;;;;;16.10;14.60;;;19.50;80.00;;;;;;5033415;28;20868;-94
2021/05/29 10:40:49;;;;;;;18.37;16.63;;;19.50;79.70;;;;;;5034293;28;20496;-95
2021/05/29 10:43:19;;;;;;;18.50;16.80;;;19.50;81.70;;;;;;5049056;28;20415;-92
2021/05/29 10:45:51;;;;;;;16.40;14.97;;;19.50;80.70;;;;;;5034625;28;20896;-91
2021/05/29 10:48:19;;;;;;;14.43;13.13;;;19.40;80.60;;;;;;5034500;28;20436;-92
2021/05/29 10:50:58;;;;;;;23.23;20.80;;;19.40;81.90;;;;;;5034883;28;20713;-82
2021/05/29 10:53:39;;;;;;;23.33;20.93;;;19.40;81.90;;;;;;5034757;28;20400;-83
2021/05/29 10:56:17;;;;;;;18.83;16.97;;;19.50;80.80;;;;;;5051447;28;20797;-83
2021/05/29 10:59:02;;;;;;;16.03;14.63;;;19.60;79.60;;;;;;5052151;28;20428;-83
2021/05/29 11:01:37;;;;;;;15.67;14.27;;;19.60;79.30;;;;;;5052108;28;20457;-83
2021/05/29 11:04:12;;;;;;;15.23;13.83;;;19.70;79.30;;;;;;5033796;28;20920;-83
2021/05/29 11:06:41;;;;;;;15.97;14.37;;;19.70;79.40;;;;;;5034338;28;20412;-83
2021/05/29 11:09:07;;;;;;;13.43;12.33;;;19.70;79.20;;;;;;5051817;28;20431;-83
2021/05/29 11:11:36;;;;;;;14.97;13.63;;;19.80;80.10;;;;;;5037731;28;20404;-83
2021/05/29 11:14:05;;;;;;;13.20;12.07;;;19.80;79.50;;;;;;5037620;28;20776;-84
2021/05/29 11:16:46;;;;;;;12.40;11.40;;;19.90;80.40;;;;;;5037964;28;20459;-82
2021/05/29 11:19:26;;;;;;;12.37;11.37;;;20.00;78.60;;;;;;5055153;28;20442;-83
2021/05/29 11:22:12;;;;;;;11.27;10.30;;;20.10;78.40;;;;;;5055879;28;20405;-82
2021/05/29 11:24:59;;;;;;;11.10;10.13;;;20.00;78.70;;;;;;5037961;28;20511;-82
2021/05/29 11:27:32;;;;;;;11.30;10.20;;;20.00;78.40;;;;;;5055429;28;20487;-83
2021/05/29 11:30:20;;;;;;;17.23;15.53;;;20.10;78.90;;;;;;5037508;28;20415;-86
2021/05/29 11:32:57;;;;;;;14.40;12.50;;;20.20;78.30;;;;;;5055838;28;20408;-82
2021/05/29 11:35:26;;;;;;;16.37;14.87;;;20.20;78.30;;;;;;5054964;28;20848;-84
2021/05/29 11:38:01;;;;;;;14.43;13.13;;;20.10;78.10;;;;;;5037583;28;20439;-83
2021/05/29 11:40:45;;;;;;;12.90;11.70;;;20.10;77.90;;;;;;5055635;28;20738;-83
2021/05/29 11:43:13;;;;;;;12.03;10.83;;;20.00;78.90;;;;;;5054644;28;20419;-82
2021/05/29 11:45:39;;;;;;;13.13;10.80;;;19.80;79.40;;;;;;5055291;28;20504;-83
2021/05/29 11:48:06;;;;;;;12.37;11.37;;;19.80;79.90;;;;;;5036980;28;20496;-84
2021/05/29 11:50:33;;;;;;;11.00;9.87;;;19.80;79.40;;;;;;5037216;28;20423;-88
2021/05/29 11:52:59;;;;;;;10.50;9.70;;;19.80;84.20;;;;;;5055332;28;20499;-88
2021/05/29 11:55:25;;;;;;;12.07;10.97;;;19.90;86.20;;;;;;5053795;28;20908;-87
2021/05/29 11:58:00;;;;;;;12.50;11.50;;;19.90;82.90;;;;;;5037148;28;20419;-88
2021/05/29 12:00:27;;;;;;;10.63;9.83;;;19.90;84.00;;;;;;5055073;28;20403;-87
2021/05/29 12:02:54;;;;;;;10.57;9.87;;;20.00;81.00;;;;;;5054946;28;20412;-85
2021/05/29 12:05:20;;;;;;;11.10;10.00;;;19.90;81.00;;;;;;5054424;28;20413;-88
2021/05/29 12:08:03;;;;;;;152.20;115.17;;;20.00;84.20;;;;;;5054423;28;20776;-88
2021/05/29 12:10:49;;;;;;;88.23;72.77;;;20.00;83.60;;;;;;5037389;28;20484;-89
2021/05/29 12:13:41;;;;;;;11.37;10.30;;;20.00;82.70;;;;;;5054187;28;20420;-88
2021/05/29 12:16:08;;;;;;;10.10;9.30;;;20.00;82.10;;;;;;5049807;28;20488;-89
2021/05/29 12:18:40;;;;;;;11.20;10.30;;;20.20;85.50;;;;;;5054974;28;20535;-88
2021/05/29 12:21:07;;;;;;;11.47;10.20;;;20.20;80.30;;;;;;5053657;28;20428;-89
2021/05/29 12:23:51;;;;;;;11.30;10.47;;;20.30;79.80;;;;;;5054261;28;20454;-88
2021/05/29 12:26:21;;;;;;;12.57;11.47;;;20.40;81.90;;;;;;5036152;28;20452;-88
2021/05/29 12:28:47;;;;;;;10.53;9.70;;;20.40;80.20;;;;;;5036660;28;20441;-88
2021/05/29 12:31:13;;;;;;;10.20;9.37;;;20.30;82.40;;;;;;5036144;28;20462;-88
2021/05/29 12:33:39;;;;;;;10.23;9.40;;;20.40;84.10;;;;;;5036908;28;20499;-88
2021/05/29 12:36:07;;;;;;;10.27;9.47;;;20.60;84.90;;;;;;5053724;28;20538;-89
2021/05/29 12:38:32;;;;;;;11.37;10.33;;;20.80;82.80;;;;;;5054438;28;20260;-88
2021/05/29 12:41:00;;;;;;;10.10;9.20;;;20.70;77.80;;;;;;5019569;28;20500;-88
2021/05/29 12:43:28;;;;;;;10.10;9.20;;;20.60;79.60;;;;;;5053721;28;20170;-84
2021/05/29 12:45:54;;;;;;;10.20;9.20;;;20.70;80.50;;;;;;5054197;28;20424;-89
2021/05/29 12:48:20;;;;;;;9.77;9.07;;;20.80;80.00;;;;;;5035718;28;20413;-87
2021/05/29 12:51:13;;;;;;;9.37;8.50;;;20.90;79.30;;;;;;5053987;28;20196;-87
2021/05/29 12:53:50;;;;;;;9.50;8.70;;;21.10;81.80;;;;;;5035880;28;20200;-87
2021/05/29 12:56:18;;;;;;;9.70;8.97;;;21.10;77.50;;;;;;5053001;28;20448;-88